createdAt,value
2018-11-14T00:10:13.378Z,0.00
2018-11-14T00:11:13.078Z,0.00
2018-11-14T00:12:13.040Z,0.00
2018-11-14T00:13:12.924Z,0.00
2018-11-14T00:14:12.940Z,0.00
2018-11-14T00:15:12.735Z,0.00
2018-11-14T00:16:12.748Z,0.00
2018-11-14T00:17:12.564Z,0.00
2018-11-14T00:18:12.586Z,0.00
2018-11-14T00:19:12.406Z,0.00
2018-11-14T00:20:12.421Z,0.00
2018-11-14T00:21:12.228Z,0.00
2018-11-14T00:22:12.280Z,0.00
2018-11-14T00:23:12.071Z,0.00
2018-11-14T00:24:12.113Z,0.00
2018-11-14T00:25:11.901Z,0.00
2018-11-14T00:26:11.895Z,0.00
2018-11-14T00:27:11.722Z,0.00
2018-11-14T00:28:11.740Z,0.00
2018-11-14T00:29:11.623Z,0.00
2018-11-14T00:30:11.530Z,0.00
2018-11-14T00:31:11.382Z,0.00
2018-11-14T00:32:11.432Z,0.00
2018-11-14T00:33:11.305Z,0.00
2018-11-14T00:34:11.260Z,0.00
2018-11-14T00:35:11.047Z,0.00
2018-11-14T00:36:11.037Z,0.00
2018-11-14T00:37:10.884Z,0.00
2018-11-14T00:38:10.869Z,0.00
2018-11-14T00:39:10.729Z,0.00
2018-11-14T00:40:10.666Z,0.00
2018-11-14T00:41:10.540Z,0.00
2018-11-14T00:42:10.572Z,0.00
2018-11-14T00:43:10.368Z,0.00
2018-11-14T00:44:10.407Z,0.00
2018-11-14T00:45:10.203Z,0.00
2018-11-14T00:47:52.471Z,0.00
2018-11-14T00:48:54.442Z,0.00
2018-11-14T00:49:52.306Z,0.00
2018-11-14T00:55:37.972Z,0.00
2018-11-14T00:56:37.903Z,0.00
2018-11-14T00:57:37.786Z,0.00
2018-11-14T01:00:19.984Z,0.00
2018-11-14T01:03:01.957Z,0.00
2018-11-14T01:04:01.906Z,0.00
2018-11-14T01:05:01.801Z,0.00
2018-11-14T01:06:02.778Z,0.00
2018-11-14T01:07:01.619Z,0.00
2018-11-14T01:31:23.930Z,0.00
2018-11-14T01:32:23.752Z,0.00
2018-11-14T01:33:23.716Z,0.00
2018-11-14T01:34:23.565Z,0.00
2018-11-14T01:35:23.535Z,0.00
2018-11-14T01:36:23.401Z,0.00
2018-11-14T01:37:23.471Z,0.00
2018-11-14T01:38:23.233Z,0.00
2018-11-14T01:39:23.237Z,0.00
2018-11-14T01:40:23.057Z,0.00
2018-11-14T01:43:04.987Z,0.00
2018-11-14T01:44:25.858Z,0.00
2018-11-14T01:45:04.798Z,0.00
2018-11-14T01:46:04.748Z,0.00
2018-11-14T01:47:25.680Z,0.00
2018-11-14T01:48:04.551Z,0.00
2018-11-14T01:49:04.566Z,0.00
2018-11-14T01:50:04.380Z,0.00
2018-11-14T01:51:04.373Z,0.00
2018-11-14T01:52:04.209Z,0.00
2018-11-14T01:53:04.211Z,0.00
2018-11-14T01:54:04.041Z,0.00
2018-11-14T01:55:03.988Z,0.00
2018-11-14T01:56:03.862Z,0.00
2018-11-14T01:57:03.932Z,0.00
2018-11-14T01:58:03.865Z,0.00
2018-11-14T01:59:03.707Z,0.00
2018-11-14T02:00:03.527Z,0.00
2018-11-14T02:01:03.517Z,0.00
2018-11-14T02:02:03.363Z,0.00
2018-11-14T02:03:03.364Z,0.00
2018-11-14T02:04:03.199Z,0.00
2018-11-14T02:05:03.133Z,0.00
2018-11-14T02:06:03.022Z,0.00
2018-11-14T02:08:44.995Z,0.00
2018-11-14T02:11:26.972Z,0.00
2018-11-14T02:12:26.935Z,0.00
2018-11-14T02:13:26.808Z,0.00
2018-11-14T02:15:08.573Z,0.00
2018-11-14T02:15:26.765Z,0.00
2018-11-14T02:16:26.546Z,0.00
2018-11-14T02:17:26.569Z,0.00
2018-11-14T02:18:26.389Z,0.00
2018-11-14T02:19:26.363Z,0.00
2018-11-14T02:20:26.200Z,0.00
2018-11-14T02:21:26.176Z,0.00
2018-11-14T02:22:26.034Z,0.00
2018-11-14T02:23:26.019Z,0.00
2018-11-14T02:24:25.884Z,0.00
2018-11-14T02:27:07.964Z,0.00
2018-11-14T02:28:08.023Z,0.00
2018-11-14T02:29:07.827Z,0.00
2018-11-14T02:30:07.824Z,0.00
2018-11-14T02:31:07.628Z,0.00
2018-11-14T02:33:49.484Z,0.00
2018-11-14T02:34:49.508Z,0.00
2018-11-14T02:35:49.310Z,0.00
2018-11-14T02:36:49.315Z,0.00
2018-11-14T02:37:49.252Z,0.00
2018-11-14T02:38:49.068Z,0.00
2018-11-14T02:39:48.962Z,0.00
2018-11-14T02:40:48.933Z,0.00
2018-11-14T02:41:48.802Z,0.00
2018-11-14T02:55:29.726Z,0.00
2018-11-14T02:56:29.506Z,0.00
2018-11-14T02:57:29.489Z,0.00
2018-11-14T02:58:29.335Z,0.00
2018-11-14T02:59:29.281Z,0.00
2018-11-14T03:00:29.173Z,0.00
2018-11-14T03:01:29.107Z,0.00
2018-11-14T03:02:28.995Z,0.00
2018-11-14T03:03:29.066Z,0.00
2018-11-14T03:04:28.822Z,0.00
2018-11-14T03:05:28.865Z,0.00
2018-11-14T03:06:28.656Z,0.00
2018-11-14T03:07:28.639Z,0.00
2018-11-14T03:08:28.483Z,0.00
2018-11-14T03:09:28.441Z,0.00
2018-11-14T03:10:28.333Z,0.00
2018-11-14T03:13:10.477Z,0.00
2018-11-14T03:15:52.497Z,0.00
2018-11-14T03:16:52.458Z,0.00
2018-11-14T03:17:52.306Z,0.00
2018-11-14T03:18:52.256Z,0.00
2018-11-14T03:19:52.138Z,0.00
2018-11-14T03:20:53.117Z,0.00
2018-11-14T03:21:51.969Z,0.00
2018-11-14T03:22:51.977Z,0.00
2018-11-14T03:23:51.791Z,0.00
2018-11-14T03:24:51.786Z,0.00
2018-11-14T03:25:51.650Z,0.00
2018-11-14T03:26:51.611Z,0.00
2018-11-14T03:27:51.466Z,0.00
2018-11-14T03:28:51.400Z,0.00
2018-11-14T03:29:51.288Z,0.00
2018-11-14T03:30:51.348Z,0.00
2018-11-14T03:33:58.988Z,0.00
2018-11-14T03:34:58.916Z,0.00
2018-11-14T03:35:58.825Z,0.00
2018-11-14T03:36:58.861Z,0.00
2018-11-14T03:37:58.646Z,0.00
2018-11-14T03:38:58.641Z,0.00
2018-11-14T03:39:58.472Z,0.00
2018-11-14T03:40:58.478Z,0.00
2018-11-14T03:41:58.303Z,0.00
2018-11-14T03:44:40.494Z,0.00
2018-11-14T03:45:40.461Z,0.00
2018-11-14T03:46:40.324Z,0.00
2018-11-14T03:49:22.479Z,0.00
2018-11-14T03:50:22.464Z,0.00
2018-11-14T03:51:22.338Z,0.00
2018-11-14T03:52:22.283Z,0.00
2018-11-14T03:53:22.151Z,0.00
2018-11-14T03:54:22.085Z,0.00
2018-11-14T03:55:21.983Z,0.00
2018-11-14T03:56:22.032Z,0.00
2018-11-14T03:57:21.830Z,0.00
2018-11-14T03:58:21.830Z,0.00
2018-11-14T03:59:21.635Z,0.00
2018-11-14T04:00:21.615Z,0.00
2018-11-14T04:01:21.470Z,0.00
2018-11-14T04:02:21.453Z,0.00
2018-11-14T04:03:21.305Z,0.00
2018-11-14T04:04:21.329Z,0.00
2018-11-14T04:05:21.131Z,0.00
2018-11-14T04:08:03.011Z,0.00
2018-11-14T04:09:02.957Z,0.00
2018-11-14T04:10:02.815Z,0.00
2018-11-14T04:11:02.846Z,0.00
2018-11-14T04:12:02.652Z,0.00
2018-11-14T04:13:03.601Z,0.00
2018-11-14T04:14:02.480Z,0.00
2018-11-14T04:15:02.469Z,0.00
2018-11-14T04:16:02.318Z,0.00
2018-11-14T04:17:02.300Z,0.00
2018-11-14T04:18:02.134Z,0.00
2018-11-14T04:19:02.080Z,0.00
2018-11-14T04:20:01.973Z,0.00
2018-11-14T04:21:01.991Z,0.00
2018-11-14T04:22:01.820Z,0.00
2018-11-14T04:23:01.801Z,0.00
2018-11-14T04:24:01.645Z,0.00
2018-11-14T04:25:01.612Z,0.00
2018-11-14T04:26:01.472Z,0.00
2018-11-14T04:27:01.469Z,0.00
2018-11-14T04:28:01.309Z,0.00
2018-11-14T04:29:01.342Z,0.00
2018-11-14T04:30:01.132Z,0.00
2018-11-14T04:31:01.132Z,0.00
2018-11-14T04:32:00.955Z,0.00
2018-11-14T04:33:00.975Z,0.00
2018-11-14T04:34:00.785Z,0.00
2018-11-14T04:35:00.750Z,0.00
2018-11-14T04:36:00.622Z,0.00
2018-11-14T04:37:00.571Z,0.00
2018-11-14T04:38:00.460Z,0.00
2018-11-14T04:39:00.472Z,0.00
2018-11-14T04:40:00.275Z,0.00
2018-11-14T04:41:00.272Z,0.00
2018-11-14T04:42:00.119Z,0.00
2018-11-14T04:43:00.124Z,0.00
2018-11-14T04:43:59.935Z,0.00
2018-11-14T04:44:59.894Z,0.00
2018-11-14T04:45:59.769Z,0.00
2018-11-14T04:46:59.810Z,0.00
2018-11-14T04:47:59.684Z,0.00
2018-11-14T04:50:41.498Z,0.00
2018-11-14T04:51:41.508Z,0.00
2018-11-14T04:52:41.372Z,0.00
2018-11-14T04:53:41.263Z,0.00
2018-11-14T04:54:41.151Z,0.00
2018-11-14T04:55:41.131Z,0.00
2018-11-14T04:56:40.975Z,0.00
2018-11-14T04:57:40.938Z,0.00
2018-11-14T04:58:40.825Z,0.00
2018-11-14T04:59:40.851Z,0.00
2018-11-14T05:00:40.650Z,0.00
2018-11-14T05:03:22.516Z,0.00
2018-11-14T05:04:22.487Z,0.00
2018-11-14T05:05:22.323Z,0.00
2018-11-14T05:06:22.362Z,0.00
2018-11-14T05:07:22.162Z,0.00
2018-11-14T05:08:22.210Z,0.00
2018-11-14T05:09:21.986Z,0.00
2018-11-14T05:10:21.980Z,0.00
2018-11-14T05:11:21.811Z,0.00
2018-11-14T05:12:21.788Z,0.00
2018-11-14T05:13:21.646Z,0.00
2018-11-14T05:14:21.627Z,0.00
2018-11-14T05:15:21.497Z,0.00
2018-11-14T05:18:03.489Z,0.00
2018-11-14T05:19:03.432Z,0.00
2018-11-14T05:20:03.350Z,0.00
2018-11-14T05:21:03.320Z,0.00
2018-11-14T05:22:03.156Z,0.00
2018-11-14T05:23:03.137Z,0.00
2018-11-14T05:24:02.987Z,0.00
2018-11-14T05:25:02.961Z,0.00
2018-11-14T05:27:27.493Z,0.00
2018-11-14T05:30:09.528Z,0.00
2018-11-14T05:31:09.523Z,0.00
2018-11-14T05:32:09.324Z,0.00
2018-11-14T05:33:09.344Z,0.00
2018-11-14T05:34:09.157Z,0.00
2018-11-14T05:35:09.188Z,0.00
2018-11-14T05:36:08.979Z,0.00
2018-11-14T05:37:08.962Z,0.00
2018-11-14T05:38:08.816Z,0.00
2018-11-14T05:39:08.874Z,0.00
2018-11-14T05:40:08.691Z,0.00
2018-11-14T05:41:08.694Z,0.00
2018-11-14T05:42:08.477Z,0.00
2018-11-14T05:44:50.496Z,0.00
2018-11-14T05:45:51.529Z,0.00
2018-11-14T05:46:50.319Z,0.00
2018-11-14T05:47:50.276Z,0.00
2018-11-14T05:48:50.154Z,0.00
2018-11-14T05:51:32.019Z,0.00
2018-11-14T05:52:31.979Z,0.00
2018-11-14T05:53:31.830Z,0.00
2018-11-14T05:54:31.804Z,0.00
2018-11-14T05:55:31.665Z,0.00
2018-11-14T05:56:31.636Z,0.00
2018-11-14T05:57:31.486Z,0.00
2018-11-14T05:58:31.513Z,0.00
2018-11-14T05:59:31.325Z,0.00
2018-11-14T06:00:31.325Z,0.00
2018-11-14T06:01:31.185Z,0.00
2018-11-14T06:02:31.137Z,0.00
2018-11-14T06:03:30.982Z,0.00
2018-11-14T06:04:30.948Z,0.00
2018-11-14T06:05:30.939Z,0.00
2018-11-14T06:06:31.808Z,0.00
2018-11-14T06:07:30.703Z,0.00
2018-11-14T06:08:30.558Z,0.00
2018-11-14T06:09:30.482Z,0.00
2018-11-14T06:10:30.473Z,0.00
2018-11-14T06:11:30.330Z,0.00
2018-11-14T06:12:30.278Z,0.00
2018-11-14T06:13:30.145Z,0.00
2018-11-14T06:14:30.079Z,0.00
2018-11-14T06:15:30.036Z,0.00
2018-11-14T06:16:30.891Z,0.00
2018-11-14T06:17:29.794Z,0.00
2018-11-14T06:18:29.802Z,0.00
2018-11-14T06:19:29.620Z,0.00
2018-11-14T06:20:29.619Z,0.00
2018-11-14T06:21:29.487Z,0.00
2018-11-14T06:26:14.510Z,0.00
2018-11-14T06:27:14.559Z,0.00
2018-11-14T06:28:14.348Z,0.00
2018-11-14T06:29:14.314Z,0.00
2018-11-14T06:30:14.167Z,0.00
2018-11-14T06:31:14.123Z,0.00
2018-11-14T06:32:14.025Z,0.00
2018-11-14T06:33:14.036Z,0.00
2018-11-14T06:34:13.836Z,0.00
2018-11-14T06:35:13.753Z,0.00
2018-11-14T06:36:13.662Z,5.63
2018-11-14T06:37:13.694Z,5.63
2018-11-14T06:38:13.488Z,5.63
2018-11-14T06:39:13.433Z,5.63
2018-11-14T06:40:13.330Z,5.63
2018-11-14T06:41:13.252Z,5.63
2018-11-14T06:42:13.181Z,5.63
2018-11-14T06:44:55.010Z,11.25
2018-11-14T06:45:54.938Z,11.25
2018-11-14T06:46:54.842Z,11.25
2018-11-14T06:47:55.844Z,16.88
2018-11-14T06:48:54.671Z,16.88
2018-11-14T06:49:54.635Z,16.88
2018-11-14T06:50:54.516Z,22.50
2018-11-14T06:51:54.426Z,22.50
2018-11-14T06:52:54.369Z,22.50
2018-11-14T06:53:54.247Z,28.13
2018-11-14T06:54:54.156Z,28.13
2018-11-14T06:55:54.088Z,28.13
2018-11-14T06:56:53.985Z,33.75
2018-11-14T06:57:53.926Z,33.75
2018-11-14T06:58:53.919Z,33.75
2018-11-14T06:59:53.804Z,39.38
2018-11-14T07:00:53.642Z,39.38
2018-11-14T07:01:53.589Z,45.00
2018-11-14T07:02:53.488Z,45.00
2018-11-14T07:03:53.415Z,50.63
2018-11-14T07:04:53.372Z,50.63
2018-11-14T07:05:53.356Z,56.25
2018-11-14T07:06:53.147Z,56.25
2018-11-14T07:07:53.069Z,61.88
2018-11-14T07:13:25.511Z,73.13
2018-11-14T07:14:25.449Z,78.75
2018-11-14T07:15:25.340Z,78.75
2018-11-14T07:16:25.260Z,84.38
2018-11-14T07:17:25.176Z,84.38
2018-11-14T07:18:25.120Z,90.00
2018-11-14T07:19:25.017Z,90.00
2018-11-14T07:20:25.085Z,95.63
2018-11-14T07:21:24.837Z,95.63
2018-11-14T07:22:26.622Z,101.25
2018-11-14T07:23:25.577Z,101.25
2018-11-14T07:24:25.044Z,106.88
2018-11-14T07:25:24.687Z,106.88
2018-11-14T07:26:24.418Z,112.50
2018-11-14T07:27:24.324Z,112.50
2018-11-14T07:28:24.247Z,118.13
2018-11-14T07:29:24.177Z,118.13
2018-11-14T07:32:06.108Z,123.75
2018-11-14T07:33:05.935Z,123.75
2018-11-14T07:34:05.843Z,129.38
2018-11-14T07:35:05.794Z,129.38
2018-11-14T07:36:05.690Z,135.00
2018-11-14T07:37:05.602Z,135.00
2018-11-14T07:38:05.509Z,140.63
2018-11-14T07:40:47.556Z,140.63
2018-11-14T07:41:47.443Z,146.25
2018-11-14T07:42:47.357Z,146.25
2018-11-14T07:43:47.366Z,151.88
2018-11-14T07:44:47.204Z,151.88
2018-11-14T07:45:47.107Z,151.88
2018-11-14T07:46:47.005Z,151.88
2018-11-14T07:47:46.923Z,151.88
2018-11-14T07:48:46.848Z,157.50
2018-11-14T07:49:46.775Z,157.50
2018-11-14T07:50:46.678Z,157.50
2018-11-14T07:53:28.528Z,163.13
2018-11-14T07:54:28.500Z,163.13
2018-11-14T07:55:28.406Z,163.13
2018-11-14T07:56:28.279Z,163.13
2018-11-14T07:57:28.186Z,168.75
2018-11-14T07:58:28.100Z,168.75
2018-11-14T07:59:28.013Z,168.75
2018-11-14T08:00:28.166Z,168.75
2018-11-14T08:01:28.012Z,174.38
2018-11-14T08:02:28.644Z,174.38
2018-11-14T08:03:27.880Z,174.38
2018-11-14T08:04:27.615Z,174.38
2018-11-14T08:05:27.529Z,180.00
2018-11-14T08:06:27.442Z,180.00
2018-11-14T08:07:27.339Z,185.63
2018-11-14T08:08:27.315Z,185.63
2018-11-14T08:09:27.174Z,185.63
2018-11-14T08:10:28.102Z,191.25
2018-11-14T08:11:27.008Z,191.25
2018-11-14T08:12:26.943Z,191.25
2018-11-14T08:13:26.851Z,196.88
2018-11-14T08:16:09.031Z,202.50
2018-11-14T08:17:09.019Z,208.13
2018-11-14T08:18:08.853Z,213.75
2018-11-14T08:19:08.775Z,213.75
2018-11-14T08:20:08.700Z,219.38
2018-11-14T08:21:08.604Z,219.38
2018-11-14T08:22:08.548Z,225.00
2018-11-14T08:23:08.434Z,225.00
2018-11-14T08:24:08.369Z,230.63
2018-11-14T08:26:50.551Z,230.63
2018-11-14T08:27:51.469Z,236.25
2018-11-14T08:28:50.347Z,236.25
2018-11-14T08:29:50.282Z,241.88
2018-11-14T08:30:50.215Z,241.88
2018-11-14T08:31:50.150Z,241.88
2018-11-14T08:32:50.034Z,247.50
2018-11-14T08:35:32.023Z,281.25
2018-11-14T08:38:14.110Z,292.50
2018-11-14T08:39:13.977Z,298.13
2018-11-14T08:40:13.854Z,309.38
2018-11-14T08:41:13.772Z,315.00
2018-11-14T08:42:13.687Z,320.63
2018-11-14T08:44:40.032Z,360.00
2018-11-14T08:45:39.940Z,410.63
2018-11-14T08:46:39.873Z,466.88
2018-11-14T08:47:39.778Z,534.38
2018-11-14T08:48:40.705Z,618.75
2018-11-14T08:49:39.611Z,675.00
2018-11-14T08:50:39.537Z,776.25
2018-11-14T08:51:39.449Z,894.38
2018-11-14T08:52:39.366Z,916.88
2018-11-14T08:53:39.300Z,916.88
2018-11-14T08:54:39.201Z,933.75
2018-11-14T08:55:39.118Z,945.00
2018-11-14T08:56:39.033Z,973.13
2018-11-14T08:57:38.941Z,1001.25
2018-11-14T08:58:38.901Z,1029.38
2018-11-14T08:59:38.808Z,1035.00
2018-11-14T09:02:21.040Z,978.75
2018-11-14T09:03:20.988Z,939.38
2018-11-14T09:04:20.897Z,939.38
2018-11-14T09:05:20.795Z,961.88
2018-11-14T09:06:20.752Z,984.38
2018-11-14T09:07:20.625Z,1006.88
2018-11-14T09:08:20.580Z,1046.25
2018-11-14T09:09:20.460Z,1074.38
2018-11-14T09:10:20.372Z,1091.25
2018-11-14T09:13:02.608Z,1113.75
2018-11-14T09:14:02.500Z,1119.38
2018-11-14T09:15:02.465Z,1113.75
2018-11-14T09:16:02.302Z,1141.88
2018-11-14T09:17:02.207Z,1136.25
2018-11-14T09:19:44.085Z,1175.63
2018-11-14T09:20:43.964Z,1198.13
2018-11-14T09:21:43.884Z,1198.13
2018-11-14T09:22:43.796Z,1215.00
2018-11-14T09:23:43.767Z,1198.13
2018-11-14T09:24:43.690Z,1209.38
2018-11-14T09:25:43.567Z,1209.38
2018-11-14T09:26:43.487Z,1186.88
2018-11-14T09:27:43.395Z,1237.50
2018-11-14T09:30:25.558Z,1186.88
2018-11-14T09:31:25.458Z,1203.75
2018-11-14T09:32:25.377Z,1209.38
2018-11-14T09:34:18.169Z,1226.25
2018-11-14T09:34:25.213Z,1254.38
2018-11-14T09:35:25.166Z,1260.00
2018-11-14T09:36:25.054Z,1260.00
2018-11-14T09:39:07.075Z,1237.50
2018-11-14T09:40:08.012Z,1231.88
2018-11-14T09:41:06.951Z,1231.88
2018-11-14T09:43:49.078Z,1248.75
2018-11-14T09:44:49.396Z,1170.00
2018-11-14T09:45:48.899Z,1203.75
2018-11-14T09:48:31.093Z,1153.13
2018-11-14T09:49:31.055Z,1366.88
2018-11-14T09:50:30.905Z,1372.50
2018-11-14T09:51:30.815Z,1350.00
2018-11-14T09:52:30.722Z,1378.13
2018-11-14T09:53:30.651Z,1316.25
2018-11-14T09:54:30.573Z,1260.00
2018-11-14T09:55:30.523Z,1276.88
2018-11-14T09:56:30.452Z,1389.38
2018-11-14T09:57:30.328Z,1411.88
2018-11-14T09:58:30.262Z,1378.13
2018-11-14T09:59:30.167Z,1406.25
2018-11-14T10:00:30.208Z,1372.50
2018-11-14T10:01:30.014Z,1372.50
2018-11-14T10:02:29.937Z,1372.50
2018-11-14T10:05:12.054Z,1372.50
2018-11-14T10:06:12.996Z,1366.88
2018-11-14T10:07:11.893Z,1400.63
2018-11-14T10:08:11.828Z,1406.25
2018-11-14T10:09:11.723Z,1462.50
2018-11-14T10:10:11.658Z,1462.50
2018-11-14T10:11:11.599Z,1423.13
2018-11-14T10:12:11.494Z,1445.63
2018-11-14T10:13:11.411Z,1462.50
2018-11-14T10:14:11.342Z,1451.25
2018-11-14T10:15:11.251Z,1423.13
2018-11-14T10:16:12.216Z,1417.50
2018-11-14T10:17:11.098Z,1434.38
2018-11-14T10:18:11.022Z,1456.88
2018-11-14T10:19:10.930Z,1462.50
2018-11-14T10:21:53.071Z,1485.00
2018-11-14T10:22:52.984Z,1451.25
2018-11-14T10:23:52.896Z,1456.88
2018-11-14T10:24:52.850Z,1428.75
2018-11-14T10:25:52.750Z,1406.25
2018-11-14T10:26:53.669Z,1383.75
2018-11-14T10:27:52.586Z,1440.00
2018-11-14T10:28:52.504Z,1434.38
2018-11-14T10:29:52.456Z,1434.38
2018-11-14T10:30:52.395Z,1451.25
2018-11-14T10:31:52.272Z,1440.00
2018-11-14T10:34:34.565Z,1440.00
2018-11-14T10:35:34.494Z,1383.75
2018-11-14T10:36:34.400Z,1378.13
2018-11-14T10:37:34.358Z,1366.88
2018-11-14T10:38:34.238Z,1327.50
2018-11-14T10:39:34.174Z,1383.75
2018-11-14T10:40:34.078Z,1496.25
2018-11-14T10:43:16.087Z,1468.13
2018-11-14T10:44:16.000Z,1530.00
2018-11-14T10:45:15.910Z,1507.50
2018-11-14T10:47:58.082Z,1490.63
2018-11-14T10:48:58.994Z,1513.13
2018-11-14T10:49:57.919Z,1479.38
2018-11-14T10:50:57.839Z,1451.25
2018-11-14T10:51:57.757Z,1400.63
2018-11-14T10:52:57.687Z,1344.38
2018-11-14T10:53:57.653Z,1305.00
2018-11-14T10:54:57.517Z,1276.88
2018-11-14T10:55:57.426Z,1293.75
2018-11-14T10:56:57.362Z,1321.88
2018-11-14T10:57:57.290Z,1316.25
2018-11-14T10:58:57.193Z,1321.88
2018-11-14T10:59:57.104Z,1338.75
2018-11-14T11:00:57.025Z,1355.63
2018-11-14T11:01:56.940Z,1361.25
2018-11-14T11:02:56.912Z,1361.25
2018-11-14T11:03:56.799Z,1485.00
2018-11-14T11:06:39.080Z,1344.38
2018-11-14T11:07:39.006Z,1333.13
2018-11-14T11:08:39.007Z,1321.88
2018-11-14T11:11:21.073Z,1327.50
2018-11-14T11:12:20.994Z,1327.50
2018-11-14T11:13:20.927Z,1310.63
2018-11-14T11:14:20.874Z,1321.88
2018-11-14T11:15:20.751Z,1344.38
2018-11-14T11:16:20.682Z,1344.38
2018-11-14T11:17:20.597Z,1355.63
2018-11-14T11:18:22.505Z,1350.00
2018-11-14T11:19:20.477Z,1316.25
2018-11-14T11:20:22.352Z,1299.38
2018-11-14T11:21:20.283Z,1288.13
2018-11-14T11:22:20.225Z,1293.75
2018-11-14T11:23:20.148Z,1260.00
2018-11-14T11:24:21.049Z,1265.63
2018-11-14T11:25:19.967Z,1260.00
2018-11-14T11:26:19.893Z,1260.00
2018-11-14T11:27:19.800Z,1288.13
2018-11-14T11:28:19.715Z,1282.50
2018-11-14T11:29:19.654Z,1265.63
2018-11-14T11:30:19.579Z,1271.25
2018-11-14T11:31:19.463Z,1271.25
2018-11-14T11:32:19.392Z,1271.25
2018-11-14T11:33:19.297Z,1231.88
2018-11-14T11:34:19.232Z,1203.75
2018-11-14T11:35:19.199Z,1198.13
2018-11-14T11:36:19.071Z,1170.00
2018-11-14T11:37:18.983Z,1203.75
2018-11-14T11:40:01.122Z,1192.50
2018-11-14T11:41:01.032Z,1203.75
2018-11-14T11:42:00.924Z,1226.25
2018-11-14T11:44:43.129Z,1153.13
2018-11-14T11:45:43.008Z,1158.75
2018-11-14T11:46:42.922Z,1153.13
2018-11-14T11:47:42.847Z,1164.38
2018-11-14T11:48:42.752Z,1170.00
2018-11-14T11:49:42.684Z,1136.25
2018-11-14T11:50:42.628Z,1130.63
2018-11-14T11:51:42.523Z,1136.25
2018-11-14T11:52:42.430Z,1170.00
2018-11-14T11:53:42.374Z,1175.63
2018-11-14T11:54:42.285Z,1203.75
2018-11-14T11:55:42.228Z,1226.25
2018-11-14T11:56:42.134Z,1231.88
2018-11-14T11:57:42.043Z,1130.63
2018-11-14T11:58:41.951Z,714.38
2018-11-14T12:01:24.110Z,410.63
2018-11-14T12:02:24.083Z,405.00
2018-11-14T12:03:23.931Z,405.00
2018-11-14T12:04:23.879Z,399.38
2018-11-14T12:05:23.757Z,393.75
2018-11-14T12:06:24.762Z,393.75
2018-11-14T12:07:23.603Z,382.50
2018-11-14T12:08:23.528Z,382.50
2018-11-14T12:09:23.439Z,376.88
2018-11-14T12:12:05.737Z,365.63
2018-11-14T12:13:05.582Z,365.63
2018-11-14T12:14:05.435Z,360.00
2018-11-14T12:15:05.358Z,365.63
2018-11-14T12:16:05.260Z,376.88
2018-11-14T12:17:06.223Z,405.00
2018-11-14T12:18:05.125Z,416.25
2018-11-14T12:20:47.082Z,343.13
2018-11-14T12:21:47.041Z,331.88
2018-11-14T12:22:46.931Z,326.25
2018-11-14T12:23:46.951Z,320.63
2018-11-14T12:24:46.797Z,320.63
2018-11-14T12:25:46.698Z,320.63
2018-11-14T12:26:46.605Z,320.63
2018-11-14T12:27:46.549Z,315.00
2018-11-14T12:28:46.446Z,320.63
2018-11-14T12:29:46.403Z,309.38
2018-11-14T12:30:46.400Z,309.38
2018-11-14T12:31:46.197Z,309.38
2018-11-14T12:32:46.136Z,309.38
2018-11-14T12:33:46.066Z,309.38
2018-11-14T12:34:46.125Z,309.38
2018-11-14T12:37:28.113Z,303.75
2018-11-14T12:40:10.096Z,298.13
2018-11-14T12:41:10.021Z,298.13
2018-11-14T12:42:09.927Z,292.50
2018-11-14T12:43:11.880Z,292.50
2018-11-14T12:44:09.797Z,292.50
2018-11-14T12:46:51.879Z,286.88
2018-11-14T12:47:52.171Z,281.25
2018-11-14T12:48:51.881Z,281.25
2018-11-14T12:49:51.641Z,281.25
2018-11-14T12:50:51.282Z,281.25
2018-11-14T12:51:51.203Z,281.25
2018-11-14T12:52:51.175Z,275.63
2018-11-14T12:53:52.394Z,275.63
2018-11-14T12:54:50.952Z,275.63
2018-11-14T12:55:50.882Z,270.00
2018-11-14T12:56:50.779Z,270.00
2018-11-14T12:57:50.752Z,270.00
2018-11-14T12:58:50.669Z,264.38
2018-11-14T12:59:50.598Z,264.38
2018-11-14T13:00:50.471Z,264.38
2018-11-14T13:03:32.622Z,258.75
2018-11-14T13:04:32.530Z,258.75
2018-11-14T13:05:32.473Z,253.13
2018-11-14T13:06:32.360Z,258.75
2018-11-14T13:07:32.283Z,247.50
2018-11-14T13:08:32.226Z,247.50
2018-11-14T13:09:32.145Z,241.88
2018-11-14T13:10:32.045Z,241.88
2018-11-14T13:11:31.968Z,241.88
2018-11-14T13:12:31.878Z,247.50
2018-11-14T13:13:31.792Z,241.88
2018-11-14T13:14:32.730Z,241.88
2018-11-14T13:15:31.639Z,241.88
2018-11-14T13:16:31.542Z,236.25
2018-11-14T13:17:31.449Z,236.25
2018-11-14T13:18:31.387Z,236.25
2018-11-14T13:19:31.287Z,236.25
2018-11-14T13:20:31.233Z,236.25
2018-11-14T13:21:31.156Z,230.63
2018-11-14T13:22:31.047Z,230.63
2018-11-14T13:23:30.970Z,230.63
2018-11-14T13:24:30.899Z,230.63
2018-11-14T13:25:30.820Z,230.63
2018-11-14T13:26:30.729Z,230.63
2018-11-14T13:27:30.629Z,225.00
2018-11-14T13:28:30.555Z,225.00
2018-11-14T13:29:30.460Z,225.00
2018-11-14T13:30:30.404Z,219.38
2018-11-14T13:31:30.311Z,219.38
2018-11-14T13:32:30.231Z,219.38
2018-11-14T13:33:30.137Z,219.38
2018-11-14T13:34:30.063Z,213.75
2018-11-14T13:35:30.007Z,213.75
2018-11-14T13:36:29.895Z,213.75
2018-11-14T13:37:29.814Z,213.75
2018-11-14T13:38:29.757Z,213.75
2018-11-14T13:39:29.658Z,208.13
2018-11-14T13:40:30.609Z,208.13
2018-11-14T13:41:29.524Z,208.13
2018-11-14T13:42:30.422Z,208.13
2018-11-14T13:43:29.314Z,202.50
2018-11-14T13:44:29.251Z,202.50
2018-11-14T13:45:29.160Z,202.50
2018-11-14T13:46:29.093Z,202.50
2018-11-14T13:47:28.996Z,202.50
2018-11-14T13:48:28.914Z,202.50
2018-11-14T13:49:28.938Z,196.88
2018-11-14T13:50:28.860Z,196.88
2018-11-14T13:51:28.669Z,196.88
2018-11-14T13:54:10.610Z,196.88
2018-11-14T13:56:52.653Z,191.25
2018-11-14T13:57:52.536Z,191.25
2018-11-14T13:58:52.445Z,191.25
2018-11-14T13:59:52.379Z,202.50
2018-11-14T14:00:52.325Z,202.50
2018-11-14T14:01:52.206Z,202.50
2018-11-14T14:02:52.137Z,196.88
2018-11-14T14:03:52.048Z,191.25
2018-11-14T14:04:51.988Z,196.88
2018-11-14T14:05:51.885Z,185.63
2018-11-14T14:06:51.837Z,180.00
2018-11-14T14:07:51.733Z,180.00
2018-11-14T14:08:51.648Z,180.00
2018-11-14T14:09:51.553Z,180.00
2018-11-14T14:10:51.466Z,180.00
2018-11-14T14:11:51.419Z,180.00
2018-11-14T14:12:51.300Z,174.38
2018-11-14T14:13:51.229Z,174.38
2018-11-14T14:14:51.136Z,174.38
2018-11-14T14:15:51.074Z,174.38
2018-11-14T14:16:50.992Z,168.75
2018-11-14T14:19:33.138Z,163.13
2018-11-14T14:20:33.049Z,157.50
2018-11-14T14:21:32.961Z,151.88
2018-11-14T14:24:15.158Z,146.25
2018-11-14T14:25:15.060Z,146.25
2018-11-14T14:26:14.973Z,146.25
2018-11-14T14:28:57.140Z,140.63
2018-11-14T14:29:57.058Z,140.63
2018-11-14T14:30:56.988Z,140.63
2018-11-14T14:31:56.885Z,135.00
2018-11-14T14:32:56.788Z,135.00
2018-11-14T14:33:56.751Z,135.00
2018-11-14T14:34:56.626Z,135.00
2018-11-14T14:35:56.562Z,129.38
2018-11-14T14:36:56.466Z,129.38
2018-11-14T14:37:56.461Z,129.38
2018-11-14T14:38:56.320Z,123.75
2018-11-14T14:39:56.223Z,123.75
2018-11-14T14:40:56.165Z,123.75
2018-11-14T14:41:56.062Z,123.75
2018-11-14T14:42:55.987Z,123.75
2018-11-14T14:43:55.945Z,118.13
2018-11-14T14:44:55.806Z,118.13
2018-11-14T14:45:55.727Z,118.13
2018-11-14T14:46:55.645Z,118.13
2018-11-14T14:47:55.589Z,112.50
2018-11-14T14:48:55.586Z,112.50
2018-11-14T14:49:55.430Z,112.50
2018-11-14T14:50:55.321Z,106.88
2018-11-14T14:51:55.247Z,106.88
2018-11-14T14:52:55.157Z,101.25
2018-11-14T14:53:55.070Z,101.25
2018-11-14T14:54:55.014Z,101.25
2018-11-14T14:57:37.128Z,95.63
2018-11-14T15:00:19.163Z,90.00
2018-11-14T15:01:19.048Z,84.38
2018-11-14T15:02:18.965Z,84.38
2018-11-14T15:03:18.976Z,84.38
2018-11-14T15:04:18.802Z,78.75
2018-11-14T15:05:18.743Z,78.75
2018-11-14T15:06:18.676Z,78.75
2018-11-14T15:07:18.556Z,73.13
2018-11-14T15:08:18.484Z,73.13
2018-11-14T15:11:00.679Z,67.50
2018-11-14T15:12:00.554Z,67.50
2018-11-14T15:13:00.472Z,61.88
2018-11-14T15:14:00.389Z,61.88
2018-11-14T15:15:00.310Z,61.88
2018-11-14T15:16:01.255Z,56.25
2018-11-14T15:17:00.143Z,56.25
2018-11-14T15:19:42.133Z,56.25
2018-11-14T15:20:42.080Z,50.63
2018-11-14T15:21:41.971Z,50.63
2018-11-14T15:22:42.002Z,50.63
2018-11-14T15:23:41.829Z,45.00
2018-11-14T15:24:41.749Z,45.00
2018-11-14T15:25:41.636Z,45.00
2018-11-14T15:26:41.582Z,39.38
2018-11-14T15:27:41.479Z,39.38
2018-11-14T15:28:41.423Z,39.38